Time;durP1;ratioP1;P1;durP2;ratioP2;P2;SDS_P1;SDS_P2;PMS_P1;PMS_P2;Temp;Humidity;BMP_temperature;BMP_pressure;BME280_temperature;BME280_humidity;BME280_pressure;Samples;Min_cycle;Max_cycle;Signal;HPM_P1;HPM_P2
2021/12/08 00:01:53;;;;;;;12.07;1.90;;;;;;;;;;5093811;28;20039;-65
2021/12/08 00:04:20;;;;;;;7.45;1.33;;;;;;;;;;5079989;28;20507;-65
2021/12/08 00:06:46;;;;;;;11.32;3.45;;;;;;;;;;5087159;28;20495;-65
2021/12/08 00:14:29;;;;;;;6.57;1.85;;;;;;;;;;5093509;28;20262;-65
2021/12/08 00:16:55;;;;;;;7.78;1.30;;;;;;;;;;5093196;28;20031;-65
2021/12/08 00:19:22;;;;;;;11.60;1.88;;;;;;;;;;5093549;28;20539;-65
2021/12/08 00:21:48;;;;;;;10.38;1.65;;;;;;;;;;5093913;28;20054;-65
2021/12/08 00:24:14;;;;;;;11.98;2.00;;;;;;;;;;5093711;28;20028;-65
2021/12/08 00:26:40;;;;;;;9.25;1.75;;;;;;;;;;5093625;28;20539;-65
2021/12/08 00:29:06;;;;;;;15.20;2.13;;;;;;;;;;5075130;28;20476;-65
2021/12/08 00:31:33;;;;;;;10.15;1.63;;;;;;;;;;5093495;28;20099;-65
2021/12/08 00:34:00;;;;;;;9.55;1.88;;;;;;;;;;5093346;28;20038;-65
2021/12/08 00:36:31;;;;;;;5.65;1.25;;;;;;;;;;5093500;28;20105;-65
2021/12/08 00:38:58;;;;;;;4.68;1.95;;;;;;;;;;5093145;28;20059;-65
2021/12/08 00:41:24;;;;;;;3.78;1.10;;;;;;;;;;5093543;28;20023;-65
2021/12/08 00:43:50;;;;;;;12.10;1.25;;;;;;;;;;5093080;28;20032;-65
2021/12/08 00:46:16;;;;;;;8.63;0.90;;;;;;;;;;5075363;28;20395;-65
2021/12/08 00:48:48;;;;;;;8.75;1.67;;;;;;;;;;5092396;28;20028;-65
2021/12/08 00:51:14;;;;;;;15.07;2.17;;;;;;;;;;5093072;28;20115;-64
2021/12/08 00:53:40;;;;;;;10.15;2.00;;;;;;;;;;5093049;28;20032;-64
2021/12/08 00:56:06;;;;;;;11.65;1.88;;;;;;;;;;5093261;28;20032;-64
2021/12/08 00:58:32;;;;;;;14.40;1.60;;;;;;;;;;5092930;28;20492;-64
2021/12/08 01:00:58;;;;;;;13.65;1.80;;;;;;;;;;5093138;28;20123;-64
2021/12/08 01:03:24;;;;;;;10.30;2.00;;;;;;;;;;5086833;28;20032;-63
2021/12/08 01:05:52;;;;;;;9.77;1.42;;;;;;;;;;5072496;28;20043;-64
2021/12/08 01:08:19;;;;;;;7.93;2.05;;;;;;;;;;5073117;28;20029;-64
2021/12/08 01:10:46;;;;;;;7.18;1.25;;;;;;;;;;5088024;28;20066;-64
2021/12/08 01:13:13;;;;;;;10.85;1.80;;;;;;;;;;5093116;28;20076;-64
2021/12/08 01:15:41;;;;;;;9.40;1.13;;;;;;;;;;5092666;28;20024;-64
2021/12/08 01:18:07;;;;;;;7.10;1.58;;;;;;;;;;5092762;28;20039;-64
2021/12/08 01:20:34;;;;;;;9.10;1.63;;;;;;;;;;5075437;28;20043;-64
2021/12/08 01:23:00;;;;;;;9.55;1.60;;;;;;;;;;5072822;28;20028;-64
2021/12/08 01:25:26;;;;;;;16.08;2.40;;;;;;;;;;5086684;28;20031;-64
2021/12/08 01:27:52;;;;;;;18.45;1.95;;;;;;;;;;5092705;28;20115;-64
2021/12/08 01:30:18;;;;;;;16.00;1.73;;;;;;;;;;5092825;28;20036;-64
2021/12/08 01:32:46;;;;;;;10.98;1.50;;;;;;;;;;5086786;28;20024;-64
2021/12/08 01:35:12;;;;;;;15.45;1.77;;;;;;;;;;5072655;28;20036;-64
2021/12/08 01:37:39;;;;;;;8.13;1.70;;;;;;;;;;5072446;28;20051;-64
2021/12/08 01:40:08;;;;;;;7.72;1.73;;;;;;;;;;5085723;28;20365;-64
2021/12/08 01:42:42;;;;;;;8.82;1.55;;;;;;;;;;5092302;28;20036;-64
2021/12/08 01:47:53;;;;;;;13.80;3.25;;;;;;;;;;5074644;28;20068;-64
2021/12/08 01:50:19;;;;;;;10.35;2.05;;;;;;;;;;5088176;28;20035;-64
2021/12/08 01:52:45;;;;;;;14.98;1.35;;;;;;;;;;5083896;28;20528;-64
2021/12/08 01:55:12;;;;;;;7.25;1.50;;;;;;;;;;5087461;28;20073;-64
2021/12/08 01:57:38;;;;;;;13.13;1.95;;;;;;;;;;5092552;28;20032;-64
2021/12/08 02:00:07;;;;;;;18.58;1.75;;;;;;;;;;5093394;28;20077;-64
2021/12/08 02:02:33;;;;;;;18.65;2.83;;;;;;;;;;5096758;28;20032;-64
2021/12/08 02:04:59;;;;;;;24.55;2.55;;;;;;;;;;5096374;28;20028;-64
2021/12/08 02:07:25;;;;;;;11.98;2.35;;;;;;;;;;5058570;28;20112;-65
2021/12/08 02:09:51;;;;;;;12.80;2.28;;;;;;;;;;5067483;28;20027;-64
2021/12/08 02:12:18;;;;;;;13.00;3.00;;;;;;;;;;5096066;28;20027;-64
2021/12/08 02:14:44;;;;;;;11.35;2.08;;;;;;;;;;5096199;28;20028;-64
2021/12/08 02:17:10;;;;;;;12.20;1.90;;;;;;;;;;5096329;28;20058;-65
2021/12/08 02:19:37;;;;;;;8.02;1.65;;;;;;;;;;5087558;28;20350;-65
2021/12/08 02:22:03;;;;;;;10.45;1.85;;;;;;;;;;5075839;28;20032;-65
2021/12/08 02:24:29;;;;;;;14.35;2.13;;;;;;;;;;5076096;28;20041;-65
2021/12/08 02:26:57;;;;;;;12.00;1.98;;;;;;;;;;5095698;28;20375;-65
2021/12/08 02:29:35;;;;;;;8.93;2.20;;;;;;;;;;5095370;28;20020;-65
2021/12/08 02:46:34;;;;;;;11.38;2.00;;;;;;;;;;5095683;28;20024;-65
2021/12/08 02:48:26;;;;;;;6.55;1.40;;;;;;;;;;5013627;28;20073;-65
2021/12/08 02:50:52;;;;;;;7.20;1.02;;;;;;;;;;5013229;28;20042;-65
2021/12/08 02:53:18;;;;;;;2.22;0.85;;;;;;;;;;5013898;28;20053;-65
2021/12/08 02:55:45;;;;;;;2.65;1.27;;;;;;;;;;5013368;28;20033;-65
2021/12/08 02:58:12;;;;;;;4.05;0.85;;;;;;;;;;5029424;28;20429;-65
2021/12/08 03:00:40;;;;;;;3.90;1.05;;;;;;;;;;5040793;28;20121;-65
2021/12/08 03:03:06;;;;;;;4.32;0.80;;;;;;;;;;5053052;28;20497;-65
2021/12/08 03:05:33;;;;;;;5.75;0.90;;;;;;;;;;5053049;28;20043;-65
2021/12/08 03:08:00;;;;;;;6.38;0.88;;;;;;;;;;5052712;28;20036;-64
2021/12/08 03:10:27;;;;;;;3.08;0.65;;;;;;;;;;5052523;28;20071;-64
2021/12/08 03:12:54;;;;;;;1.85;0.77;;;;;;;;;;5049247;28;20029;-64
2021/12/08 03:15:20;;;;;;;1.98;0.60;;;;;;;;;;5050023;28;20116;-64
2021/12/08 03:17:46;;;;;;;4.78;0.60;;;;;;;;;;5052507;28;20068;-64
2021/12/08 03:20:15;;;;;;;5.28;1.00;;;;;;;;;;5028695;28;20029;-64
2021/12/08 03:22:45;;;;;;;5.47;0.90;;;;;;;;;;5062360;28;20456;-64
2021/12/08 03:25:16;;;;;;;2.65;0.63;;;;;;;;;;5094233;28;20107;-64
2021/12/08 03:27:50;;;;;;;3.45;0.90;;;;;;;;;;5094197;28;20062;-64
2021/12/08 03:30:29;;;;;;;3.28;1.25;;;;;;;;;;5094878;28;20081;-64
2021/12/08 03:32:58;;;;;;;5.35;0.88;;;;;;;;;;5094880;28;20020;-64
2021/12/08 03:35:24;;;;;;;5.75;1.45;;;;;;;;;;5094410;28;20110;-65
2021/12/08 03:37:51;;;;;;;2.58;0.88;;;;;;;;;;5095021;28;20059;-64
2021/12/08 03:40:20;;;;;;;5.75;0.80;;;;;;;;;;5094152;28;20056;-64
2021/12/08 03:42:46;;;;;;;6.20;1.25;;;;;;;;;;5094432;28;20032;-64
2021/12/08 03:45:17;;;;;;;7.85;1.00;;;;;;;;;;5094508;28;20099;-64
2021/12/08 03:47:46;;;;;;;9.50;1.50;;;;;;;;;;5078234;28;20035;-65
2021/12/08 03:50:13;;;;;;;3.58;0.75;;;;;;;;;;5074253;28;20021;-65
2021/12/08 03:52:40;;;;;;;4.70;0.75;;;;;;;;;;5074260;28;20032;-65
2021/12/08 03:55:07;;;;;;;4.32;0.95;;;;;;;;;;5074226;28;20059;-65
2021/12/08 03:57:33;;;;;;;5.32;0.70;;;;;;;;;;5092684;28;20047;-65
2021/12/08 03:59:59;;;;;;;5.20;1.02;;;;;;;;;;5094401;28;20107;-65
2021/12/08 04:02:25;;;;;;;6.28;1.45;;;;;;;;;;5093890;28;20024;-65
2021/12/08 04:04:51;;;;;;;10.30;1.20;;;;;;;;;;5094450;28;20035;-65
2021/12/08 04:07:18;;;;;;;5.93;1.15;;;;;;;;;;5093584;28;20028;-65
2021/12/08 04:09:47;;;;;;;4.43;0.85;;;;;;;;;;5094408;28;20032;-65
2021/12/08 04:12:16;;;;;;;5.88;1.15;;;;;;;;;;5093523;28;20019;-65
2021/12/08 04:14:44;;;;;;;8.40;1.33;;;;;;;;;;5094005;28;20040;-64
2021/12/08 04:17:13;;;;;;;7.03;1.65;;;;;;;;;;5078735;28;20119;-64
2021/12/08 04:19:40;;;;;;;3.72;1.58;;;;;;;;;;5085081;28;20025;-64
2021/12/08 04:22:09;;;;;;;11.57;1.33;;;;;;;;;;5072784;28;20501;-64
2021/12/08 04:24:36;;;;;;;12.65;2.38;;;;;;;;;;5073541;28;20024;-64
2021/12/08 04:27:07;;;;;;;8.38;2.15;;;;;;;;;;5073044;28;20032;-64
2021/12/08 04:29:35;;;;;;;9.52;1.77;;;;;;;;;;5073801;28;20032;-64
2021/12/08 04:32:01;;;;;;;10.05;2.65;;;;;;;;;;5075391;28;20395;-65
2021/12/08 04:34:30;;;;;;;9.48;1.58;;;;;;;;;;5079575;28;20056;-64
2021/12/08 04:37:00;;;;;;;14.50;2.25;;;;;;;;;;5090104;28;20420;-64
2021/12/08 04:39:39;;;;;;;17.15;1.75;;;;;;;;;;5093274;28;20035;-64
2021/12/08 04:42:10;;;;;;;19.13;2.28;;;;;;;;;;5093695;28;20027;-65
2021/12/08 04:44:45;;;;;;;18.02;3.45;;;;;;;;;;5089788;28;20036;-64
2021/12/08 04:52:22;;;;;;;13.30;1.90;;;;;;;;;;5088920;28;20028;-65
2021/12/08 05:06:17;;;;;;;11.82;2.20;;;;;;;;;;5088770;28;20028;-65
2021/12/08 05:08:43;;;;;;;12.93;2.13;;;;;;;;;;5086600;28;20051;-64
2021/12/08 05:11:21;;;;;;;14.38;1.67;;;;;;;;;;5091007;28;20024;-64
2021/12/08 05:13:49;;;;;;;15.85;2.33;;;;;;;;;;5090536;28;20106;-64
2021/12/08 05:16:16;;;;;;;13.07;1.90;;;;;;;;;;5088939;28;20093;-64
2021/12/08 05:18:44;;;;;;;18.60;2.40;;;;;;;;;;5084098;28;20063;-64
2021/12/08 05:21:17;;;;;;;8.18;1.60;;;;;;;;;;5072848;28;20055;-64
2021/12/08 05:23:45;;;;;;;10.77;1.88;;;;;;;;;;5086666;28;20095;-64
2021/12/08 05:26:19;;;;;;;10.07;1.77;;;;;;;;;;5042236;28;20040;-64
2021/12/08 05:28:46;;;;;;;14.07;3.17;;;;;;;;;;5084508;28;20080;-65
2021/12/08 05:31:16;;;;;;;13.38;2.05;;;;;;;;;;5084381;28;20032;-65
2021/12/08 05:33:44;;;;;;;11.68;2.13;;;;;;;;;;5077347;28;20031;-65
2021/12/08 05:36:11;;;;;;;9.63;1.95;;;;;;;;;;5087745;28;20056;-65
2021/12/08 05:38:38;;;;;;;10.80;2.40;;;;;;;;;;5088129;28;20071;-65
2021/12/08 05:41:15;;;;;;;14.85;2.65;;;;;;;;;;5081196;28;20040;-65
2021/12/08 05:43:42;;;;;;;8.00;1.52;;;;;;;;;;5088385;28;20035;-65
2021/12/08 05:46:08;;;;;;;11.07;1.65;;;;;;;;;;5082062;28;20043;-65
2021/12/08 05:48:35;;;;;;;13.40;2.28;;;;;;;;;;5087251;28;20058;-65
2021/12/08 05:51:03;;;;;;;13.07;2.17;;;;;;;;;;5088623;28;20027;-65
2021/12/08 05:53:29;;;;;;;8.98;1.55;;;;;;;;;;5088184;28;20036;-65
2021/12/08 05:55:55;;;;;;;4.93;1.90;;;;;;;;;;5083075;28;20024;-65
2021/12/08 05:58:23;;;;;;;8.52;1.27;;;;;;;;;;5085828;28;20166;-65
2021/12/08 06:00:51;;;;;;;8.75;2.55;;;;;;;;;;5083400;28;20097;-65
2021/12/08 06:03:18;;;;;;;7.88;1.85;;;;;;;;;;5081745;28;20031;-65
2021/12/08 06:05:46;;;;;;;11.73;2.25;;;;;;;;;;5089029;28;20124;-65
2021/12/08 06:08:13;;;;;;;14.82;2.10;;;;;;;;;;5085789;28;20028;-65
2021/12/08 06:10:39;;;;;;;12.48;1.80;;;;;;;;;;5075171;28;20110;-65
2021/12/08 06:13:07;;;;;;;15.48;2.15;;;;;;;;;;5089132;28;20508;-65
2021/12/08 06:15:33;;;;;;;10.50;2.13;;;;;;;;;;5086901;28;20500;-65
2021/12/08 06:18:00;;;;;;;11.55;1.90;;;;;;;;;;5083570;28;20469;-65
2021/12/08 06:20:26;;;;;;;12.98;2.22;;;;;;;;;;5087104;28;20042;-65
2021/12/08 06:22:53;;;;;;;11.80;1.63;;;;;;;;;;5090219;28;20056;-65
2021/12/08 06:25:20;;;;;;;7.97;1.92;;;;;;;;;;5088853;28;20035;-64
2021/12/08 06:27:47;;;;;;;17.73;2.47;;;;;;;;;;5088249;28;20024;-65
2021/12/08 06:30:15;;;;;;;11.18;3.00;;;;;;;;;;5076512;28;20720;-63
2021/12/08 06:32:41;;;;;;;18.83;3.00;;;;;;;;;;5080848;28;20034;-65
2021/12/08 06:35:10;;;;;;;19.23;3.92;;;;;;;;;;5083282;28;20035;-64
2021/12/08 06:37:38;;;;;;;15.10;3.58;;;;;;;;;;5091155;28;20092;-64
2021/12/08 06:40:26;;;;;;;14.82;2.95;;;;;;;;;;5083054;28;20021;-64
2021/12/08 06:42:53;;;;;;;19.65;2.47;;;;;;;;;;5082907;28;20491;-64
2021/12/08 06:45:21;;;;;;;13.05;2.72;;;;;;;;;;5081197;28;20025;-64
2021/12/08 06:47:48;;;;;;;17.98;3.08;;;;;;;;;;5076226;28;20033;-64
2021/12/08 06:50:21;;;;;;;13.18;2.78;;;;;;;;;;5090940;28;20024;-64
2021/12/08 06:52:48;;;;;;;13.45;2.10;;;;;;;;;;5080135;28;20594;-64
2021/12/08 06:55:22;;;;;;;6.20;1.63;;;;;;;;;;5091169;28;20027;-64
2021/12/08 06:57:51;;;;;;;15.75;2.10;;;;;;;;;;5083262;28;20028;-64
2021/12/08 07:00:34;;;;;;;13.82;2.38;;;;;;;;;;5084141;28;20039;-64
2021/12/08 07:07:59;;;;;;;12.75;3.00;;;;;;;;;;5087384;28;20587;-64
2021/12/08 07:10:28;;;;;;;21.50;2.53;;;;;;;;;;5089727;28;20400;-64
2021/12/08 07:12:59;;;;;;;11.25;1.70;;;;;;;;;;5089397;28;20047;-64
2021/12/08 07:15:25;;;;;;;7.45;1.70;;;;;;;;;;5092549;28;20115;-64
2021/12/08 07:17:53;;;;;;;14.63;2.20;;;;;;;;;;5092669;28;20036;-64
2021/12/08 07:22:52;;;;;;;11.65;2.08;;;;;;;;;;5090709;28;20028;-64
2021/12/08 07:25:20;;;;;;;12.63;1.35;;;;;;;;;;5083850;28;20108;-64
2021/12/08 07:27:46;;;;;;;5.40;1.13;;;;;;;;;;5088792;28;20103;-64
2021/12/08 07:30:34;;;;;;;2.90;0.82;;;;;;;;;;5092138;28;20468;-64
2021/12/08 07:33:00;;;;;;;7.10;0.60;;;;;;;;;;5087032;28;20106;-64
2021/12/08 07:35:28;;;;;;;4.65;1.25;;;;;;;;;;5078512;28;20024;-64
2021/12/08 07:37:57;;;;;;;11.07;1.23;;;;;;;;;;5083803;28;20450;-64
2021/12/08 07:40:26;;;;;;;4.78;1.00;;;;;;;;;;5088780;28;20073;-63
2021/12/08 07:42:58;;;;;;;2.55;1.02;;;;;;;;;;5085615;28;20024;-64
2021/12/08 07:45:30;;;;;;;2.15;1.00;;;;;;;;;;5092158;28;20053;-64
2021/12/08 07:47:58;;;;;;;6.30;1.20;;;;;;;;;;5090735;28;20089;-64
2021/12/08 07:50:36;;;;;;;5.25;1.25;;;;;;;;;;5089562;28;20388;-64
2021/12/08 07:53:04;;;;;;;3.78;1.20;;;;;;;;;;5082273;28;20089;-64
2021/12/08 07:55:34;;;;;;;5.93;1.48;;;;;;;;;;5087116;28;20036;-64
2021/12/08 07:58:01;;;;;;;13.18;1.98;;;;;;;;;;5090524;28;20030;-64
2021/12/08 08:00:27;;;;;;;9.50;1.73;;;;;;;;;;5092003;28;20016;-64
2021/12/08 08:02:53;;;;;;;5.28;1.58;;;;;;;;;;5067925;28;20444;-64
2021/12/08 08:05:22;;;;;;;11.10;1.98;;;;;;;;;;5085899;28;20016;-64
2021/12/08 08:07:49;;;;;;;8.85;1.80;;;;;;;;;;5096392;28;20077;-64
2021/12/08 08:10:16;;;;;;;7.25;2.17;;;;;;;;;;5094040;28;20437;-64
2021/12/08 08:12:45;;;;;;;4.05;1.38;;;;;;;;;;5092469;28;20028;-64
2021/12/08 08:15:23;;;;;;;9.55;2.25;;;;;;;;;;5092655;28;20039;-64
2021/12/08 08:17:52;;;;;;;5.20;2.83;;;;;;;;;;5086497;28;20390;-64
2021/12/08 08:20:21;;;;;;;8.32;1.80;;;;;;;;;;5085492;28;20059;-64
2021/12/08 08:22:47;;;;;;;9.52;2.15;;;;;;;;;;5089934;28;20062;-64
2021/12/08 08:25:16;;;;;;;17.00;3.22;;;;;;;;;;5091736;28;20024;-64
2021/12/08 08:27:42;;;;;;;17.98;3.08;;;;;;;;;;5082800;28;20059;-64
2021/12/08 08:30:10;;;;;;;19.00;2.13;;;;;;;;;;5089041;28;20055;-64
2021/12/08 08:32:39;;;;;;;12.48;2.50;;;;;;;;;;5083154;28;20024;-64
2021/12/08 08:35:09;;;;;;;5.65;1.80;;;;;;;;;;5087782;28;20012;-64
2021/12/08 08:37:35;;;;;;;10.20;2.20;;;;;;;;;;5086106;28;20032;-64
2021/12/08 08:40:03;;;;;;;12.57;2.05;;;;;;;;;;5086622;28;20452;-64
2021/12/08 08:42:32;;;;;;;7.22;1.70;;;;;;;;;;5090518;28;20031;-64
2021/12/08 08:45:12;;;;;;;7.75;1.80;;;;;;;;;;5089904;28;20028;-64
2021/12/08 08:47:44;;;;;;;9.73;2.05;;;;;;;;;;5087499;28;20065;-64
2021/12/08 08:50:12;;;;;;;6.22;1.77;;;;;;;;;;5089890;28;20035;-64
2021/12/08 08:52:41;;;;;;;12.48;2.42;;;;;;;;;;5087345;28;20028;-64
2021/12/08 08:55:10;;;;;;;8.57;2.70;;;;;;;;;;5087778;28;20015;-64
2021/12/08 08:57:37;;;;;;;10.65;2.28;;;;;;;;;;5089153;28;20024;-64
2021/12/08 09:00:16;;;;;;;12.88;2.10;;;;;;;;;;5087980;28;20519;-64
2021/12/08 09:02:42;;;;;;;15.00;2.25;;;;;;;;;;5084114;28;20027;-64
2021/12/08 09:05:13;;;;;;;12.70;2.10;;;;;;;;;;5090415;28;20028;-64
2021/12/08 09:07:40;;;;;;;11.85;2.30;;;;;;;;;;5088565;28;20027;-64
2021/12/08 09:10:09;;;;;;;12.52;1.85;;;;;;;;;;5086495;28;20398;-64
2021/12/08 09:12:39;;;;;;;8.85;2.00;;;;;;;;;;5091014;28;20783;-64
2021/12/08 09:15:11;;;;;;;9.35;2.10;;;;;;;;;;5087824;28;20043;-64
2021/12/08 09:17:40;;;;;;;7.05;2.08;;;;;;;;;;5088941;28;20055;-64
2021/12/08 09:20:06;;;;;;;11.35;2.38;;;;;;;;;;5090275;28;20418;-64
2021/12/08 09:22:35;;;;;;;18.00;4.07;;;;;;;;;;5088642;28;20032;-63
2021/12/08 09:25:13;;;;;;;9.10;2.38;;;;;;;;;;5088745;28;20022;-63
2021/12/08 09:27:59;;;;;;;16.05;4.40;;;;;;;;;;5068471;28;20062;-63
2021/12/08 09:30:32;;;;;;;14.60;2.50;;;;;;;;;;5083946;28;20464;-63
2021/12/08 09:33:01;;;;;;;8.77;2.05;;;;;;;;;;5084104;28;20024;-63
2021/12/08 09:35:37;;;;;;;25.77;2.83;;;;;;;;;;5082890;28;20108;-63
2021/12/08 09:38:10;;;;;;;7.43;1.88;;;;;;;;;;5084007;28;20033;-63
2021/12/08 09:40:39;;;;;;;10.10;1.55;;;;;;;;;;5084653;28;20036;-63
2021/12/08 09:43:11;;;;;;;6.00;2.08;;;;;;;;;;5083379;28;20128;-64
2021/12/08 09:45:45;;;;;;;9.10;0.93;;;;;;;;;;5085212;28;20061;-64
2021/12/08 09:48:12;;;;;;;13.95;3.13;;;;;;;;;;5087544;28;20036;-65
2021/12/08 09:50:38;;;;;;;4.60;1.05;;;;;;;;;;5083137;28;20035;-64
2021/12/08 09:53:06;;;;;;;4.75;1.20;;;;;;;;;;5084386;28;20027;-64
2021/12/08 09:55:34;;;;;;;7.35;1.52;;;;;;;;;;5085572;28;20047;-64
2021/12/08 09:58:01;;;;;;;5.25;0.98;;;;;;;;;;5084351;28;20131;-64
2021/12/08 10:00:30;;;;;;;9.23;2.13;;;;;;;;;;5086373;28;20017;-64
2021/12/08 10:02:59;;;;;;;14.70;5.13;;;;;;;;;;5085932;28;20016;-64
2021/12/08 10:05:27;;;;;;;12.20;4.00;;;;;;;;;;5088772;28;20488;-64
2021/12/08 10:07:53;;;;;;;9.38;2.83;;;;;;;;;;5084391;28;20051;-64
2021/12/08 10:10:19;;;;;;;9.13;2.08;;;;;;;;;;5085448;28;20027;-64
2021/12/08 10:12:45;;;;;;;5.25;1.90;;;;;;;;;;5086546;28;20024;-64
2021/12/08 10:15:13;;;;;;;4.55;2.28;;;;;;;;;;5084340;28;20496;-64
2021/12/08 10:17:39;;;;;;;11.45;2.63;;;;;;;;;;5084666;28;20551;-64
2021/12/08 10:20:08;;;;;;;10.88;2.22;;;;;;;;;;5085661;28;20082;-64
2021/12/08 10:22:34;;;;;;;8.75;3.00;;;;;;;;;;5087049;28;20058;-64
2021/12/08 10:25:11;;;;;;;12.38;2.47;;;;;;;;;;5087524;28;20028;-64
2021/12/08 10:27:56;;;;;;;16.75;3.22;;;;;;;;;;5088098;28;20032;-64
2021/12/08 10:30:23;;;;;;;17.38;3.67;;;;;;;;;;5089250;28;20430;-64
2021/12/08 10:32:50;;;;;;;14.82;2.63;;;;;;;;;;5090382;28;20039;-64
2021/12/08 10:35:39;;;;;;;12.57;3.20;;;;;;;;;;5090758;28;20103;-64
2021/12/08 10:38:06;;;;;;;14.32;3.83;;;;;;;;;;5087978;28;20434;-64
2021/12/08 10:40:32;;;;;;;19.42;3.90;;;;;;;;;;5071494;28;20676;-65
2021/12/08 10:42:58;;;;;;;22.83;4.75;;;;;;;;;;5091113;28;20024;-65
2021/12/08 10:45:28;;;;;;;14.25;3.50;;;;;;;;;;5085050;28;20044;-65
2021/12/08 10:47:58;;;;;;;25.70;7.18;;;;;;;;;;5090333;28;20028;-65
2021/12/08 10:56:33;;;;;;;13.50;3.60;;;;;;;;;;5089057;28;20077;-65
2021/12/08 10:58:59;;;;;;;13.77;2.90;;;;;;;;;;5089484;28;20032;-65
2021/12/08 11:01:26;;;;;;;17.75;3.63;;;;;;;;;;5087949;28;20024;-65
2021/12/08 11:04:12;;;;;;;12.50;3.10;;;;;;;;;;5088127;28;20162;-65
2021/12/08 11:06:39;;;;;;;16.25;4.43;;;;;;;;;;5085592;28;20115;-66
2021/12/08 11:09:12;;;;;;;12.70;4.35;;;;;;;;;;5087794;28;20044;-66
2021/12/08 11:11:43;;;;;;;20.75;3.03;;;;;;;;;;5090352;28;20451;-66
2021/12/08 11:14:10;;;;;;;27.92;3.83;;;;;;;;;;5087243;28;20030;-66
2021/12/08 11:16:41;;;;;;;19.25;7.53;;;;;;;;;;5092417;28;20039;-66
2021/12/08 11:19:20;;;;;;;20.70;3.38;;;;;;;;;;5089125;28;20119;-65
2021/12/08 11:21:53;;;;;;;13.65;2.95;;;;;;;;;;5089040;28;20039;-65
2021/12/08 11:24:35;;;;;;;11.45;2.15;;;;;;;;;;5089542;28;20051;-65
2021/12/08 11:27:03;;;;;;;8.15;2.22;;;;;;;;;;5087632;28;20024;-65
2021/12/08 11:29:31;;;;;;;15.43;2.90;;;;;;;;;;5085845;28;20027;-65
2021/12/08 11:31:59;;;;;;;14.25;1.92;;;;;;;;;;5088823;28;20027;-65
2021/12/08 11:34:27;;;;;;;10.40;2.17;;;;;;;;;;5088316;28;20384;-65
2021/12/08 11:36:55;;;;;;;8.05;2.05;;;;;;;;;;5085846;28;20055;-65
2021/12/08 11:39:32;;;;;;;14.13;2.88;;;;;;;;;;5087558;28;20020;-65
2021/12/08 11:42:00;;;;;;;8.48;2.17;;;;;;;;;;5085970;28;20036;-65
2021/12/08 11:44:27;;;;;;;19.55;3.60;;;;;;;;;;5086301;28;20038;-65
2021/12/08 11:46:55;;;;;;;13.57;2.83;;;;;;;;;;5087908;28;20047;-65
2021/12/08 11:49:22;;;;;;;14.70;2.58;;;;;;;;;;5086861;28;20024;-65
2021/12/08 11:51:50;;;;;;;11.52;1.88;;;;;;;;;;5087248;28;20023;-65
2021/12/08 11:54:42;;;;;;;10.93;2.20;;;;;;;;;;5086626;28;20028;-65
2021/12/08 11:57:14;;;;;;;12.45;1.95;;;;;;;;;;5084728;28;20503;-65
2021/12/08 11:59:46;;;;;;;5.72;2.05;;;;;;;;;;5085757;28;20535;-65
2021/12/08 12:02:14;;;;;;;8.68;2.70;;;;;;;;;;5084683;28;20178;-65
2021/12/08 12:04:41;;;;;;;26.52;4.03;;;;;;;;;;5085091;28;20048;-65
2021/12/08 12:07:10;;;;;;;13.57;1.90;;;;;;;;;;5088023;28;20031;-65
2021/12/08 12:09:36;;;;;;;9.82;2.60;;;;;;;;;;5089919;28;20647;-64
2021/12/08 12:12:02;;;;;;;11.88;2.45;;;;;;;;;;5084570;28;20496;-65
2021/12/08 12:14:28;;;;;;;21.50;5.00;;;;;;;;;;5083519;28;20107;-65
2021/12/08 12:16:55;;;;;;;21.08;3.28;;;;;;;;;;5087953;28;20036;-65
2021/12/08 12:19:22;;;;;;;21.15;2.97;;;;;;;;;;5087349;28;20480;-65
2021/12/08 12:21:52;;;;;;;10.55;2.13;;;;;;;;;;5087768;28;20063;-65
2021/12/08 12:24:36;;;;;;;12.48;2.40;;;;;;;;;;5088387;28;20399;-64
2021/12/08 12:27:21;;;;;;;18.65;2.90;;;;;;;;;;5088720;28;20488;-64
2021/12/08 12:29:56;;;;;;;13.85;2.95;;;;;;;;;;5088288;28;20031;-64
2021/12/08 12:32:33;;;;;;;13.70;2.45;;;;;;;;;;5089445;28;20476;-63
2021/12/08 12:35:28;;;;;;;17.73;3.45;;;;;;;;;;5082961;28;20388;-63
2021/12/08 12:38:07;;;;;;;13.48;2.58;;;;;;;;;;5069157;28;20037;-63
2021/12/08 12:40:35;;;;;;;12.88;2.50;;;;;;;;;;5085438;28;20093;-63
2021/12/08 12:43:01;;;;;;;19.70;5.00;;;;;;;;;;5087875;28;20043;-63
2021/12/08 12:45:35;;;;;;;21.95;3.78;;;;;;;;;;5087316;28;20020;-63
2021/12/08 12:48:20;;;;;;;15.82;3.10;;;;;;;;;;5087353;28;20024;-63
2021/12/08 12:51:04;;;;;;;11.63;2.72;;;;;;;;;;5087976;28;20516;-63
2021/12/08 12:53:39;;;;;;;15.05;2.67;;;;;;;;;;5087192;28;20035;-63
2021/12/08 12:56:06;;;;;;;12.82;2.83;;;;;;;;;;5086202;28;20031;-63
2021/12/08 12:58:43;;;;;;;27.45;6.65;;;;;;;;;;5085757;28;20103;-63
2021/12/08 13:01:11;;;;;;;14.77;3.92;;;;;;;;;;5083658;28;20400;-63
2021/12/08 13:03:45;;;;;;;21.20;4.53;;;;;;;;;;5083153;28;20020;-63
2021/12/08 13:06:16;;;;;;;35.60;11.20;;;;;;;;;;5084931;28;20042;-63
2021/12/08 13:08:48;;;;;;;28.02;6.53;;;;;;;;;;5083958;28;20032;-63
2021/12/08 13:11:34;;;;;;;18.07;4.87;;;;;;;;;;5084954;28;20077;-63
2021/12/08 13:14:03;;;;;;;28.88;6.95;;;;;;;;;;5091693;28;20020;-63
2021/12/08 13:16:33;;;;;;;17.95;4.28;;;;;;;;;;5085169;28;20603;-63
2021/12/08 13:19:01;;;;;;;26.58;4.80;;;;;;;;;;5083168;28;20020;-63
2021/12/08 13:21:39;;;;;;;16.80;3.28;;;;;;;;;;5088369;28;20023;-63
2021/12/08 13:24:05;;;;;;;15.73;3.25;;;;;;;;;;5084444;28;20042;-63
2021/12/08 13:26:46;;;;;;;17.77;3.05;;;;;;;;;;5085977;28;20052;-63
2021/12/08 13:29:23;;;;;;;13.85;3.30;;;;;;;;;;5086083;28;20552;-63
2021/12/08 13:32:16;;;;;;;29.25;3.78;;;;;;;;;;5086354;28;20547;-63
2021/12/08 13:34:44;;;;;;;26.38;4.97;;;;;;;;;;5084296;28;20024;-63
2021/12/08 13:37:13;;;;;;;16.15;3.28;;;;;;;;;;5085855;28;20089;-63
2021/12/08 13:39:41;;;;;;;14.60;2.80;;;;;;;;;;5082777;28;20503;-63
2021/12/08 13:42:12;;;;;;;13.05;2.13;;;;;;;;;;5083224;28;20030;-63
2021/12/08 13:44:40;;;;;;;16.38;1.92;;;;;;;;;;5084708;28;20089;-63
2021/12/08 13:47:23;;;;;;;23.50;4.03;;;;;;;;;;5086399;28;20032;-63
2021/12/08 13:49:51;;;;;;;10.60;2.10;;;;;;;;;;5086126;28;20028;-63
2021/12/08 13:52:19;;;;;;;11.13;2.17;;;;;;;;;;5087514;28;20163;-63
2021/12/08 13:54:53;;;;;;;13.02;2.85;;;;;;;;;;5086416;28;20099;-63
2021/12/08 13:57:39;;;;;;;20.20;3.85;;;;;;;;;;5091728;28;20032;-63
2021/12/08 14:00:11;;;;;;;8.93;1.75;;;;;;;;;;5087655;28;20028;-63
2021/12/08 14:02:40;;;;;;;10.57;1.48;;;;;;;;;;5089619;28;20035;-63
2021/12/08 14:05:07;;;;;;;5.22;1.40;;;;;;;;;;5087723;28;20012;-63
2021/12/08 14:07:35;;;;;;;12.30;1.25;;;;;;;;;;5090070;28;20024;-63
2021/12/08 14:10:03;;;;;;;11.25;2.13;;;;;;;;;;5091978;28;20016;-63
2021/12/08 14:12:50;;;;;;;12.45;1.92;;;;;;;;;;5074060;28;20073;-63
2021/12/08 14:15:45;;;;;;;13.30;1.90;;;;;;;;;;5088903;28;20115;-63
2021/12/08 14:18:17;;;;;;;13.90;2.90;;;;;;;;;;5068131;28;20189;-63
2021/12/08 14:20:54;;;;;;;13.93;2.77;;;;;;;;;;5091206;28;20387;-63
2021/12/08 14:23:22;;;;;;;10.20;2.47;;;;;;;;;;5091974;28;20088;-63
2021/12/08 14:25:50;;;;;;;11.82;3.08;;;;;;;;;;5091617;28;20024;-63
2021/12/08 14:28:41;;;;;;;8.13;2.13;;;;;;;;;;5093055;28;20051;-63
2021/12/08 14:31:13;;;;;;;10.70;1.70;;;;;;;;;;5090622;28;20468;-63
2021/12/08 14:33:39;;;;;;;9.20;1.60;;;;;;;;;;5091951;28;20028;-63
2021/12/08 14:36:09;;;;;;;8.85;1.80;;;;;;;;;;5092129;28;20040;-63
2021/12/08 14:38:38;;;;;;;10.05;1.75;;;;;;;;;;5092778;28;20442;-63
2021/12/08 14:41:21;;;;;;;12.05;2.42;;;;;;;;;;5072130;28;20031;-63
2021/12/08 14:43:51;;;;;;;16.20;1.58;;;;;;;;;;5087742;28;20054;-63
2021/12/08 14:46:20;;;;;;;9.05;1.30;;;;;;;;;;5089852;28;20093;-63
2021/12/08 14:49:00;;;;;;;18.23;2.10;;;;;;;;;;5089626;28;20491;-63
2021/12/08 14:51:27;;;;;;;9.10;2.53;;;;;;;;;;5090083;28;20402;-63
2021/12/08 14:53:54;;;;;;;6.38;1.42;;;;;;;;;;5092119;28;20135;-63
2021/12/08 14:56:21;;;;;;;12.45;1.90;;;;;;;;;;5092617;28;20077;-63
2021/12/08 14:58:47;;;;;;;16.63;2.85;;;;;;;;;;5092822;28;20077;-63
2021/12/08 15:01:14;;;;;;;13.30;2.50;;;;;;;;;;5085672;28;20122;-63
2021/12/08 15:03:41;;;;;;;17.60;3.08;;;;;;;;;;5091467;28;20032;-63
2021/12/08 15:06:07;;;;;;;13.55;3.03;;;;;;;;;;5091253;28;20059;-63
2021/12/08 15:08:40;;;;;;;15.13;2.55;;;;;;;;;;5092336;28;20389;-63
2021/12/08 15:11:06;;;;;;;12.95;2.83;;;;;;;;;;5092087;28;20020;-63
2021/12/08 15:13:33;;;;;;;13.48;2.30;;;;;;;;;;5092005;28;20033;-63
2021/12/08 15:16:00;;;;;;;14.50;2.70;;;;;;;;;;5092432;28;20055;-63
2021/12/08 15:18:27;;;;;;;14.05;2.03;;;;;;;;;;5091046;28;20380;-63
2021/12/08 15:21:01;;;;;;;45.47;6.43;;;;;;;;;;5087000;28;20024;-63
2021/12/08 15:23:39;;;;;;;15.68;2.90;;;;;;;;;;5087753;28;20019;-63
2021/12/08 15:26:07;;;;;;;13.38;2.22;;;;;;;;;;5089307;28;20024;-63
2021/12/08 15:28:34;;;;;;;10.10;1.95;;;;;;;;;;5088630;28;20044;-63
2021/12/08 15:31:01;;;;;;;8.98;1.40;;;;;;;;;;5085628;28;20384;-63
2021/12/08 15:33:28;;;;;;;5.70;2.97;;;;;;;;;;5086540;28;20025;-63
2021/12/08 15:36:04;;;;;;;7.65;1.38;;;;;;;;;;5084910;28;20081;-64
2021/12/08 15:38:30;;;;;;;6.95;1.40;;;;;;;;;;5085700;28;20101;-64
2021/12/08 15:40:56;;;;;;;5.25;1.00;;;;;;;;;;5089277;28;20071;-63
2021/12/08 15:43:23;;;;;;;10.45;1.75;;;;;;;;;;5087454;28;20024;-63